| time (UTC) | temp C | wind direction | speed KPH | gust KPH | rain 1hr cm | rain 24hr cm | rain mn cm | humidity % | barometer mb |
| 20260507112657 | 14 | 321 | 6.4 | 9.7 | 0.00 | 0.00 | 0.00 | 64 | 1015.9 |
| 20260507112157 | 15 | 321 | 6.4 | 9.7 | 0.00 | 0.00 | 0.00 | 65 | 1015.9 |
| 20260507111657 | 14 | 321 | 6.4 | 9.7 | 0.00 | 0.00 | 0.00 | 66 | 1015.9 |
| 20260507111157 | 13 | 321 | 6.4 | 9.7 | 0.00 | 0.00 | 0.00 | 69 | 1015.9 |
| 20260507110657 | 13 | 321 | 6.4 | 9.7 | 0.00 | 0.00 | 0.00 | 69 | 1016.0 |
| 20260507110157 | 13 | 321 | 6.4 | 9.7 | 0.00 | 0.00 | 0.00 | 70 | 1015.9 |
| 20260507105657 | 13 | 321 | 6.4 | 9.7 | 0.00 | 0.00 | 0.00 | 70 | 1015.9 |
| 20260507105157 | 13 | 321 | 6.4 | 9.7 | 0.00 | 0.00 | 0.00 | 70 | 1015.8 |
| 20260507104657 | 14 | 321 | 6.4 | 9.7 | 0.00 | 0.00 | 0.00 | 68 | 1015.8 |
| 20260507104157 | 13 | 321 | 6.4 | 9.7 | 0.00 | 0.00 | 0.00 | 67 | 1015.8 |
| 20260507103657 | 14 | 321 | 6.4 | 9.7 | 0.00 | 0.00 | 0.00 | 70 | 1015.9 |
| 20260507103157 | 13 | 321 | 6.4 | 9.7 | 0.00 | 0.00 | 0.00 | 71 | 1015.8 |
| 20260507102657 | 13 | 315 | 6.4 | 11.3 | 0.00 | 0.00 | 0.00 | 78 | 1015.9 |
| 20260507102156 | 12 | 309 | 0.0 | 1.6 | 0.00 | 0.00 | 0.00 | 79 | 1015.9 |
| 20260507101656 | 12 | 309 | 0.0 | 1.6 | 0.00 | 0.00 | 0.00 | 77 | 1015.9 |
| 20260507101156 | 12 | 309 | 1.6 | 3.2 | 0.00 | 0.00 | 0.00 | 79 | 1015.8 |
| 20260507100656 | 12 | 309 | 1.6 | 3.2 | 0.00 | 0.00 | 0.00 | 80 | 1015.8 |
| 20260507100156 | 12 | 309 | 1.6 | 3.2 | 0.00 | 0.00 | 0.00 | 79 | 1015.7 |
| 20260507095656 | 12 | 309 | 3.2 | 4.8 | 0.00 | 0.00 | 0.00 | 81 | 1015.6 |
| 20260507095156 | 12 | 309 | 3.2 | 4.8 | 0.00 | 0.00 | 0.00 | 81 | 1015.6 |
| 20260507094656 | 12 | 309 | 3.2 | 4.8 | 0.00 | 0.00 | 0.00 | 83 | 1015.5 |
| 20260507094156 | 12 | 309 | 4.8 | 8.0 | 0.00 | 0.00 | 0.00 | 80 | 1015.5 |
| 20260507093656 | 12 | 309 | 4.8 | 8.0 | 0.00 | 0.00 | 0.00 | 80 | 1015.5 |
| 20260507093156 | 12 | 309 | 4.8 | 8.0 | 0.00 | 0.00 | 0.00 | 81 | 1015.4 |
| 20260507092656 | 12 | 309 | 8.0 | 12.9 | 0.00 | 0.00 | 0.00 | 80 | 1015.4 |
| 20260507092156 | 12 | 309 | 8.0 | 12.9 | 0.00 | 0.00 | 0.00 | 79 | 1015.3 |
| 20260507091655 | 13 | 309 | 8.0 | 12.9 | 0.00 | 0.00 | 0.00 | 81 | 1015.3 |
| 20260507091155 | 12 | 309 | 3.2 | 4.8 | 0.00 | 0.00 | 0.00 | 84 | 1015.2 |
| 20260507090655 | 12 | 309 | 3.2 | 4.8 | 0.00 | 0.00 | 0.00 | 87 | 1015.2 |
| 20260507090155 | 11 | 309 | 4.8 | 8.0 | 0.00 | 0.00 | 0.00 | 87 | 1015.2 |
| 20260507085655 | 11 | 309 | 4.8 | 8.0 | 0.00 | 0.00 | 0.00 | 92 | 1015.2 |
| 20260507085155 | 10 | 309 | 4.8 | 8.0 | 0.00 | 0.00 | 0.00 | 93 | 1015.2 |
| 20260507084656 | 10 | 309 | 8.0 | 12.9 | 0.00 | 0.00 | 0.00 | 94 | 1015.1 |
| 20260507084155 | 10 | 303 | 0.0 | 1.6 | 0.00 | 0.00 | 0.00 | 94 | 1015.2 |
| 20260507083655 | 10 | 303 | 0.0 | 1.6 | 0.00 | 0.00 | 0.00 | 92 | 1015.2 |
| 20260507083155 | 10 | 303 | 0.0 | 1.6 | 0.00 | 0.00 | 0.00 | 91 | 1015.1 |
| 20260507082655 | 10 | 303 | 1.6 | 3.2 | 0.00 | 0.00 | 0.00 | 90 | 1015.0 |
| 20260507082155 | 10 | 303 | 1.6 | 3.2 | 0.00 | 0.00 | 0.00 | 91 | 1015.0 |
| 20260507081655 | 10 | 303 | 1.6 | 3.2 | 0.00 | 0.00 | 0.00 | 92 | 1015.0 |
| 20260507081155 | 11 | 303 | 3.2 | 6.4 | 0.00 | 0.00 | 0.00 | 91 | 1014.9 |
| 20260507080655 | 11 | 303 | 3.2 | 6.4 | 0.00 | 0.00 | 0.00 | 88 | 1014.9 |
| 20260507080154 | 11 | 303 | 3.2 | 6.4 | 0.00 | 0.00 | 0.00 | 92 | 1014.8 |
| 20260507075654 | 10 | 303 | 4.8 | 9.7 | 0.00 | 0.00 | 0.00 | 92 | 1014.8 |
| 20260507075154 | 10 | 303 | 4.8 | 9.7 | 0.00 | 0.00 | 0.00 | 93 | 1014.7 |
| 20260507074654 | 10 | 303 | 8.0 | 14.5 | 0.00 | 0.00 | 0.00 | 92 | 1014.7 |
| 20260507074154 | 10 | 303 | 8.0 | 14.5 | 0.00 | 0.00 | 0.00 | 92 | 1014.6 |
| 20260507073654 | 10 | 307 | 0.0 | 3.2 | 0.00 | 0.00 | 0.00 | 93 | 1014.5 |
| 20260507073154 | 10 | 307 | 1.6 | 4.8 | 0.00 | 0.00 | 0.00 | 96 | 1014.5 |
| 20260507072654 | 9 | 307 | 1.6 | 4.8 | 0.00 | 0.00 | 0.00 | 99 | 1014.5 |
| 20260507072154 | 9 | 307 | 1.6 | 4.8 | 0.00 | 0.00 | 0.00 | 99 | 1014.4 |
| 20260507071654 | 9 | 307 | 3.2 | 8.0 | 0.00 | 0.00 | 0.00 | 10 | 1014.4 |
| 20260507071154 | 9 | 307 | 4.8 | 11.3 | 0.00 | 0.00 | 0.00 | 10 | 1014.3 |
| 20260507070654 | 9 | 307 | 4.8 | 11.3 | 0.00 | 0.00 | 0.00 | 10 | 1014.2 |
| 20260507070154 | 9 | 307 | 4.8 | 11.3 | 0.00 | 0.00 | 0.00 | 10 | 1014.3 |
| 20260507065654 | 9 | 307 | 8.0 | 16.1 | 0.00 | 0.00 | 0.00 | 10 | 1014.3 |
| 20260507065153 | 9 | 307 | 8.0 | 16.1 | 0.00 | 0.00 | 0.00 | 10 | 1014.2 |
| 20260507064653 | 9 | 307 | 8.0 | 16.1 | 0.00 | 0.00 | 0.00 | 10 | 1014.2 |
| 20260507064153 | 9 | 299 | 0.0 | 1.6 | 0.00 | 0.00 | 0.00 | 10 | 1014.1 |
| 20260507063653 | 9 | 299 | 1.6 | 3.2 | 0.00 | 0.00 | 0.00 | 10 | 1014.1 |
| 20260507063153 | 9 | 299 | 1.6 | 3.2 | 0.00 | 0.00 | 0.00 | 10 | 1014.0 |
| 20260507062653 | 10 | 299 | 1.6 | 3.2 | 0.00 | 0.00 | 0.00 | 10 | 1013.9 |
| 20260507062153 | 9 | 299 | 3.2 | 4.8 | 0.00 | 0.00 | 0.00 | 10 | 1013.9 |
| 20260507061653 | 9 | 299 | 3.2 | 4.8 | 0.00 | 0.00 | 0.00 | 10 | 1013.8 |
| 20260507061153 | 9 | 299 | 3.2 | 4.8 | 0.00 | 0.00 | 0.00 | 10 | 1013.7 |
| 20260507060653 | 9 | 299 | 4.8 | 8.0 | 0.00 | 0.00 | 0.00 | 10 | 1013.7 |
| 20260507060153 | 8 | 299 | 8.0 | 12.9 | 0.00 | 0.00 | 0.00 | 10 | 1013.6 |
| 20260507055653 | 8 | 299 | 8.0 | 12.9 | 0.00 | 0.00 | 0.00 | 10 | 1013.6 |
| 20260507055153 | 8 | 299 | 8.0 | 12.9 | 0.00 | 0.00 | 0.00 | 10 | 1013.5 |
| 20260507054652 | 8 | 288 | 0.0 | 3.2 | 0.00 | 0.00 | 0.00 | 10 | 1013.4 |
| 20260507054152 | 8 | 288 | 0.0 | 3.2 | 0.00 | 0.00 | 0.00 | 10 | 1013.4 |
| 20260507053652 | 8 | 288 | 1.6 | 4.8 | 0.00 | 0.00 | 0.00 | 10 | 1013.4 |
| 20260507053152 | 8 | 288 | 3.2 | 8.0 | 0.00 | 0.00 | 0.00 | 10 | 1013.3 |
| 20260507052652 | 8 | 288 | 3.2 | 8.0 | 0.00 | 0.00 | 0.00 | 10 | 1013.3 |
| 20260507052152 | 8 | 288 | 3.2 | 8.0 | 0.00 | 0.00 | 0.00 | 10 | 1013.3 |
| 20260507051652 | 8 | 288 | 6.4 | 12.9 | 0.00 | 0.00 | 0.00 | 10 | 1013.2 |
| 20260507051152 | 8 | 288 | 0.0 | 3.2 | 0.00 | 0.00 | 0.00 | 10 | 1013.1 |
| 20260507050652 | 8 | 288 | 0.0 | 3.2 | 0.00 | 0.00 | 0.00 | 10 | 1013.0 |
| 20260507050152 | 8 | 288 | 1.6 | 4.8 | 0.00 | 0.00 | 0.00 | 10 | 1013.0 |
| 20260507045652 | 8 | 288 | 1.6 | 4.8 | 0.00 | 0.00 | 0.00 | 10 | 1013.0 |
| 20260507045151 | 8 | 288 | 3.2 | 8.0 | 0.00 | 0.00 | 0.00 | 10 | 1012.9 |
| 20260507044651 | 8 | 288 | 3.2 | 8.0 | 0.00 | 0.00 | 0.00 | 10 | 1012.9 |
| 20260507044151 | 8 | 288 | 6.4 | 12.9 | 0.00 | 0.00 | 0.00 | 10 | 1012.8 |
| 20260507043651 | 8 | 285 | 0.0 | 3.2 | 0.00 | 0.00 | 0.00 | 10 | 1012.7 |
| 20260507043151 | 8 | 285 | 1.6 | 4.8 | 0.00 | 0.00 | 0.00 | 10 | 1012.6 |
| 20260507042651 | 8 | 285 | 1.6 | 4.8 | 0.00 | 0.00 | 0.00 | 10 | 1012.6 |
| 20260507042151 | 8 | 285 | 3.2 | 8.0 | 0.00 | 0.00 | 0.00 | 10 | 1012.5 |
| 20260507041651 | 8 | 285 | 3.2 | 8.0 | 0.00 | 0.00 | 0.00 | 10 | 1012.4 |
| 20260507041151 | 8 | 285 | 3.2 | 8.0 | 0.00 | 0.00 | 0.00 | 10 | 1012.4 |
| 20260507040651 | 9 | 285 | 4.8 | 11.3 | 0.00 | 0.00 | 0.00 | 10 | 1012.4 |
| 20260507040151 | 9 | 292 | 0.0 | 3.2 | 0.00 | 0.00 | 0.00 | 10 | 1012.3 |
| 20260507035650 | 8 | 292 | 0.0 | 3.2 | 0.00 | 0.00 | 0.00 | 10 | 1012.2 |
| 20260507035150 | 8 | 292 | 1.6 | 4.8 | 0.00 | 0.00 | 0.00 | 10 | 1012.2 |
| 20260507034650 | 8 | 292 | 1.6 | 4.8 | 0.00 | 0.00 | 0.00 | 10 | 1012.2 |
| 20260507034150 | 8 | 292 | 1.6 | 4.8 | 0.00 | 0.00 | 0.00 | 10 | 1012.2 |
| 20260507033650 | 8 | 292 | 3.2 | 8.0 | 0.00 | 0.00 | 0.00 | 10 | 1012.1 |
| 20260507033150 | 8 | 292 | 3.2 | 8.0 | 0.00 | 0.00 | 0.00 | 10 | 1012.1 |
| 20260507032650 | 8 | 292 | 3.2 | 8.0 | 0.00 | 0.00 | 0.00 | 10 | 1012.1 |
| 20260507032150 | 8 | 292 | 4.8 | 11.3 | 0.00 | 0.00 | 0.00 | 10 | 1012.1 |
| 20260507031650 | 9 | 292 | 4.8 | 11.3 | 0.00 | 0.00 | 0.00 | 10 | 1012.1 |
| 20260507031150 | 8 | 292 | 4.8 | 11.3 | 0.00 | 0.00 | 0.00 | 10 | 1012.0 |
| 20260507030650 | 9 | 292 | 0.0 | 3.2 | 0.00 | 0.00 | 0.00 | 10 | 1012.0 |
| 20260507030150 | 9 | 292 | 0.0 | 3.2 | 0.00 | 0.00 | 0.00 | 10 | 1012.0 |
| 20260507025650 | 9 | 292 | 1.6 | 4.8 | 0.00 | 0.00 | 0.00 | 10 | 1011.8 |
| 20260507025150 | 9 | 292 | 3.2 | 8.0 | 0.00 | 0.00 | 0.00 | 10 | 1011.9 |
| 20260507024650 | 9 | 292 | 3.2 | 8.0 | 0.00 | 0.00 | 0.00 | 10 | 1011.9 |
| 20260507024149 | 9 | 292 | 3.2 | 8.0 | 0.00 | 0.00 | 0.00 | 10 | 1011.9 |
| 20260507023649 | 9 | 292 | 4.8 | 11.3 | 0.00 | 0.00 | 0.00 | 10 | 1011.8 |
| 20260507023149 | 9 | 292 | 4.8 | 11.3 | 0.00 | 0.00 | 0.00 | 10 | 1011.8 |
| 20260507022649 | 9 | 300 | 0.0 | 3.2 | 0.00 | 0.00 | 0.00 | 10 | 1011.8 |
| 20260507022149 | 9 | 300 | 0.0 | 3.2 | 0.00 | 0.00 | 0.00 | 10 | 1011.8 |
| 20260507021649 | 9 | 300 | 0.0 | 3.2 | 0.00 | 0.00 | 0.00 | 10 | 1011.7 |
| 20260507021149 | 9 | 300 | 1.6 | 4.8 | 0.00 | 0.00 | 0.00 | 10 | 1011.7 |
| 20260507020649 | 9 | 300 | 1.6 | 4.8 | 0.00 | 0.00 | 0.00 | 10 | 1011.7 |
| 20260507020149 | 9 | 300 | 1.6 | 4.8 | 0.00 | 0.00 | 0.00 | 10 | 1011.6 |
| 20260507015649 | 9 | 300 | 3.2 | 8.0 | 0.00 | 0.00 | 0.00 | 10 | 1011.6 |
| 20260507015149 | 9 | 300 | 4.8 | 11.3 | 0.00 | 0.00 | 0.00 | 10 | 1011.5 |
| 20260507014649 | 9 | 300 | 4.8 | 11.3 | 0.00 | 0.00 | 0.00 | 10 | 1011.5 |
| 20260507014149 | 9 | 300 | 4.8 | 11.3 | 0.00 | 0.00 | 0.00 | 10 | 1011.5 |
| 20260507013649 | 9 | 315 | 0.0 | 1.6 | 0.00 | 0.00 | 0.00 | 10 | 1011.5 |
| 20260507013148 | 9 | 315 | 0.0 | 1.6 | 0.00 | 0.00 | 0.00 | 10 | 1011.4 |
| 20260507012648 | 9 | 315 | 1.6 | 3.2 | 0.00 | 0.00 | 0.00 | 10 | 1011.4 |
| 20260507012148 | 8 | 315 | 1.6 | 3.2 | 0.00 | 0.00 | 0.00 | 10 | 1011.4 |
| 20260507011648 | 8 | 315 | 3.2 | 6.4 | 0.00 | 0.00 | 0.00 | 10 | 1011.4 |
| 20260507011148 | 8 | 315 | 3.2 | 6.4 | 0.00 | 0.00 | 0.00 | 10 | 1011.3 |
| 20260507010648 | 9 | 315 | 3.2 | 6.4 | 0.00 | 0.00 | 0.00 | 10 | 1011.3 |
| 20260507010148 | 9 | 315 | 4.8 | 9.7 | 0.00 | 0.00 | 0.00 | 10 | 1011.2 |
| 20260507005648 | 9 | 315 | 4.8 | 9.7 | 0.00 | 0.00 | 0.00 | 10 | 1011.3 |
| 20260507005148 | 9 | 315 | 4.8 | 9.7 | 0.00 | 0.00 | 0.00 | 10 | 1011.2 |
| 20260507004648 | 9 | 312 | 0.0 | 1.6 | 0.00 | 0.00 | 0.00 | 10 | 1011.2 |
| 20260507004148 | 9 | 312 | 0.0 | 1.6 | 0.00 | 0.00 | 0.00 | 10 | 1011.2 |
| 20260507003648 | 8 | 312 | 0.0 | 1.6 | 0.00 | 0.00 | 0.00 | 10 | 1011.2 |
| 20260507003147 | 8 | 312 | 1.6 | 3.2 | 0.00 | 0.00 | 0.00 | 10 | 1011.2 |
| 20260507002647 | 8 | 312 | 1.6 | 3.2 | 0.00 | 0.00 | 0.00 | 10 | 1011.2 |
| 20260507002147 | 9 | 312 | 3.2 | 6.4 | 0.00 | 0.00 | 0.00 | 10 | 1011.2 |
| 20260507001647 | 9 | 312 | 4.8 | 9.7 | 0.00 | 0.00 | 0.00 | 10 | 1011.2 |
| 20260507001147 | 8 | 312 | 4.8 | 9.7 | 0.00 | 0.00 | 0.00 | 10 | 1011.2 |
| 20260507000647 | 9 | 312 | 4.8 | 9.7 | 0.00 | 0.00 | 0.00 | 10 | 1011.1 |
| 20260507000147 | 9 | 307 | 0.0 | 3.2 | 0.00 | 0.00 | 0.00 | 10 | 1011.1 |
| 20260506235647 | 9 | 307 | 0.0 | 3.2 | 0.00 | 0.00 | 0.00 | 10 | 1011.1 |
| 20260506235147 | 8 | 307 | 0.0 | 3.2 | 0.00 | 0.00 | 0.00 | 10 | 1011.1 |
| 20260506234647 | 9 | 307 | 1.6 | 4.8 | 0.00 | 0.00 | 0.00 | 10 | 1011.1 |
| 20260506234147 | 9 | 307 | 1.6 | 4.8 | 0.00 | 0.00 | 0.00 | 10 | 1011.1 |
| 20260506233647 | 9 | 307 | 1.6 | 4.8 | 0.00 | 0.00 | 0.00 | 10 | 1011.0 |
| 20260506233147 | 9 | 307 | 3.2 | 8.0 | 0.00 | 0.00 | 0.00 | 10 | 1011.0 |
| 20260506232647 | 9 | 307 | 4.8 | 11.3 | 0.00 | 0.00 | 0.00 | 10 | 1011.0 |
| 20260506232147 | 9 | 307 | 4.8 | 11.3 | 0.00 | 0.00 | 0.00 | 10 | 1011.0 |
| 20260506231647 | 9 | 307 | 4.8 | 11.3 | 0.00 | 0.00 | 0.00 | 10 | 1011.0 |
| 20260506231147 | 9 | 307 | 0.0 | 3.2 | 0.00 | 0.00 | 0.00 | 10 | 1011.0 |
| 20260506230646 | 9 | 307 | 0.0 | 3.2 | 0.00 | 0.00 | 0.00 | 10 | 1011.0 |
| 20260506230146 | 9 | 307 | 1.6 | 4.8 | 0.00 | 0.00 | 0.00 | 10 | 1010.9 |
| 20260506225646 | 9 | 307 | 1.6 | 4.8 | 0.00 | 0.00 | 0.00 | 10 | 1010.8 |
| 20260506225146 | 9 | 307 | 3.2 | 8.0 | 0.00 | 0.00 | 0.00 | 10 | 1010.8 |
| 20260506224646 | 9 | 307 | 4.8 | 11.3 | 0.00 | 0.00 | 0.00 | 10 | 1010.8 |
| 20260506224146 | 9 | 307 | 4.8 | 11.3 | 0.00 | 0.00 | 0.00 | 10 | 1010.7 |
| 20260506223646 | 9 | 307 | 4.8 | 11.3 | 0.00 | 0.00 | 0.00 | 10 | 1010.8 |
| 20260506223146 | 9 | 307 | 0.0 | 3.2 | 0.00 | 0.00 | 0.00 | 10 | 1010.7 |
| 20260506222646 | 9 | 307 | 0.0 | 3.2 | 0.00 | 0.00 | 0.00 | 10 | 1010.7 |
| 20260506222146 | 9 | 307 | 0.0 | 3.2 | 0.00 | 0.00 | 0.00 | 10 | 1010.7 |
| 20260506221646 | 9 | 307 | 1.6 | 6.4 | 0.00 | 0.00 | 0.00 | 10 | 1010.6 |
| 20260506221146 | 9 | 307 | 1.6 | 6.4 | 0.00 | 0.00 | 0.00 | 10 | 1010.6 |
| 20260506220646 | 9 | 307 | 1.6 | 6.4 | 0.00 | 0.00 | 0.00 | 10 | 1010.5 |
| 20260506220146 | 9 | 307 | 3.2 | 9.7 | 0.00 | 0.00 | 0.00 | 10 | 1010.5 |
| 20260506215646 | 9 | 307 | 3.2 | 9.7 | 0.00 | 0.00 | 0.00 | 10 | 1010.5 |
| 20260506215145 | 9 | 307 | 3.2 | 9.7 | 0.00 | 0.00 | 0.00 | 10 | 1010.6 |
| 20260506214645 | 9 | 307 | 6.4 | 14.5 | 0.00 | 0.00 | 0.00 | 10 | 1010.5 |
| 20260506214145 | 9 | 307 | 6.4 | 14.5 | 0.00 | 0.00 | 0.00 | 10 | 1010.4 |
| 20260506213645 | 9 | 307 | 6.4 | 14.5 | 0.00 | 0.00 | 0.00 | 10 | 1010.4 |
| 20260506213145 | 9 | 296 | 0.0 | 3.2 | 0.00 | 0.00 | 0.00 | 10 | 1010.4 |
| 20260506212645 | 9 | 296 | 0.0 | 3.2 | 0.00 | 0.00 | 0.00 | 10 | 1010.3 |
| 20260506212145 | 9 | 296 | 0.0 | 3.2 | 0.00 | 0.00 | 0.00 | 10 | 1010.3 |
| 20260506211645 | 9 | 296 | 1.6 | 4.8 | 0.00 | 0.00 | 0.00 | 10 | 1010.3 |
| 20260506211145 | 9 | 296 | 1.6 | 4.8 | 0.00 | 0.00 | 0.00 | 10 | 1010.2 |
| 20260506210645 | 9 | 296 | 1.6 | 4.8 | 0.00 | 0.00 | 0.00 | 10 | 1010.2 |
| 20260506210144 | 9 | 296 | 3.2 | 8.0 | 0.00 | 0.00 | 0.00 | 10 | 1010.2 |
| 20260506205644 | 9 | 296 | 3.2 | 8.0 | 0.00 | 0.00 | 0.00 | 10 | 1010.3 |
| 20260506205144 | 9 | 296 | 4.8 | 12.9 | 0.00 | 0.00 | 0.00 | 10 | 1010.2 |
| 20260506204644 | 9 | 296 | 4.8 | 12.9 | 0.00 | 0.00 | 0.00 | 10 | 1010.3 |
| 20260506204144 | 10 | 296 | 4.8 | 12.9 | 0.00 | 0.00 | 0.00 | 10 | 1010.2 |
| 20260506203644 | 10 | 305 | 0.0 | 3.2 | 0.00 | 0.00 | 0.00 | 10 | 1010.1 |
| 20260506203144 | 10 | 305 | 0.0 | 3.2 | 0.00 | 0.00 | 0.00 | 10 | 1010.1 |
| 20260506202644 | 10 | 305 | 1.6 | 4.8 | 0.00 | 0.00 | 0.00 | 10 | 1010.1 |
| 20260506202144 | 10 | 305 | 3.2 | 8.0 | 0.00 | 0.00 | 0.00 | 10 | 1010.0 |
| 20260506201644 | 10 | 305 | 3.2 | 8.0 | 0.00 | 0.00 | 0.00 | 10 | 1010.0 |
| 20260506201143 | 10 | 305 | 3.2 | 8.0 | 0.00 | 0.00 | 0.00 | 10 | 1009.9 |
| 20260506200643 | 10 | 305 | 4.8 | 12.9 | 0.00 | 0.00 | 0.00 | 10 | 1009.8 |
| 20260506200143 | 10 | 305 | 4.8 | 12.9 | 0.00 | 0.00 | 0.00 | 10 | 1009.8 |
| 20260506195643 | 10 | 305 | 4.8 | 12.9 | 0.00 | 0.00 | 0.00 | 10 | 1009.7 |
| 20260506195143 | 10 | 309 | 0.0 | 3.2 | 0.00 | 0.00 | 0.00 | 10 | 1009.6 |
| 20260506194643 | 10 | 309 | 0.0 | 3.2 | 0.00 | 0.00 | 0.00 | 10 | 1009.6 |
| 20260506194143 | 10 | 309 | 1.6 | 4.8 | 0.00 | 0.00 | 0.00 | 10 | 1009.6 |
| 20260506193643 | 10 | 309 | 1.6 | 4.8 | 0.00 | 0.00 | 0.00 | 10 | 1009.5 |
| 20260506193143 | 10 | 309 | 1.6 | 4.8 | 0.00 | 0.00 | 0.00 | 10 | 1009.5 |
| 20260506192643 | 10 | 309 | 3.2 | 8.0 | 0.00 | 0.00 | 0.00 | 10 | 1009.4 |
| 20260506192143 | 10 | 309 | 3.2 | 8.0 | 0.00 | 0.00 | 0.00 | 10 | 1009.4 |
| 20260506191643 | 10 | 309 | 3.2 | 8.0 | 0.00 | 0.00 | 0.00 | 10 | 1009.3 |
| 20260506191143 | 10 | 309 | 4.8 | 11.3 | 0.00 | 0.00 | 0.00 | 10 | 1009.2 |
| 20260506190643 | 10 | 309 | 4.8 | 11.3 | 0.00 | 0.00 | 0.00 | 10 | 1009.1 |
| 20260506190143 | 10 | 309 | 4.8 | 11.3 | 0.00 | 0.00 | 0.00 | 10 | 1008.9 |
| 20260506185642 | 10 | 309 | 8.0 | 17.7 | 0.00 | 0.00 | 0.00 | 10 | 1008.8 |
| 20260506185142 | 11 | 309 | 8.0 | 17.7 | 0.00 | 0.00 | 0.00 | 10 | 1008.7 |
| 20260506184642 | 10 | 306 | 0.0 | 3.2 | 0.00 | 0.00 | 0.00 | 10 | 1008.6 |
| 20260506184142 | 10 | 306 | 0.0 | 3.2 | 0.00 | 0.00 | 0.00 | 10 | 1008.5 |
| 20260506183642 | 11 | 306 | 0.0 | 3.2 | 0.00 | 0.00 | 0.00 | 10 | 1008.4 |
| 20260506183142 | 11 | 306 | 1.6 | 6.4 | 0.00 | 0.00 | 0.00 | 10 | 1008.3 |
| 20260506182642 | 11 | 306 | 1.6 | 6.4 | 0.00 | 0.00 | 0.00 | 10 | 1008.4 |
| 20260506182142 | 11 | 306 | 1.6 | 6.4 | 0.00 | 0.00 | 0.00 | 10 | 1008.2 |
| 20260506181642 | 11 | 306 | 3.2 | 9.7 | 0.00 | 0.00 | 0.00 | 10 | 1008.2 |
| 20260506181142 | 11 | 306 | 6.4 | 14.5 | 0.00 | 0.00 | 0.00 | 10 | 1008.1 |
| 20260506180642 | 11 | 306 | 6.4 | 14.5 | 0.00 | 0.00 | 0.00 | 10 | 1008.2 |
| 20260506180142 | 11 | 306 | 6.4 | 14.5 | 0.00 | 0.00 | 0.00 | 10 | 1008.2 |
| 20260506175642 | 11 | 306 | 0.0 | 3.2 | 0.00 | 0.00 | 0.00 | 10 | 1008.1 |
| 20260506175141 | 11 | 306 | 1.6 | 6.4 | 0.00 | 0.00 | 0.00 | 10 | 1008.0 |
| 20260506174641 | 11 | 306 | 3.2 | 9.7 | 0.00 | 0.00 | 0.00 | 10 | 1007.9 |
| 20260506174141 | 12 | 306 | 3.2 | 9.7 | 0.00 | 0.00 | 0.00 | 10 | 1007.9 |
| 20260506173641 | 12 | 306 | 6.4 | 14.5 | 0.00 | 0.00 | 0.00 | 10 | 1007.9 |
| 20260506173141 | 12 | 318 | 0.0 | 3.2 | 0.00 | 0.00 | 0.00 | 10 | 1007.9 |
| 20260506172641 | 12 | 318 | 0.0 | 3.2 | 0.00 | 0.00 | 0.00 | 10 | 1007.8 |
| 20260506172141 | 12 | 318 | 1.6 | 4.8 | 0.00 | 0.00 | 0.00 | 10 | 1007.7 |
| 20260506171641 | 12 | 318 | 1.6 | 4.8 | 0.00 | 0.00 | 0.00 | 10 | 1007.8 |
| 20260506171141 | 12 | 318 | 3.2 | 8.0 | 0.00 | 0.00 | 0.00 | 10 | 1007.9 |
| 20260506170641 | 12 | 318 | 3.2 | 8.0 | 0.00 | 0.00 | 0.00 | 10 | 1007.7 |
| 20260506170141 | 12 | 318 | 3.2 | 8.0 | 0.00 | 0.00 | 0.00 | 10 | 1007.7 |
| 20260506165641 | 12 | 318 | 6.4 | 11.3 | 0.00 | 0.00 | 0.00 | 10 | 1007.7 |
| 20260506165141 | 12 | 318 | 6.4 | 11.3 | 0.00 | 0.00 | 0.00 | 10 | 1007.7 |
| 20260506164641 | 12 | 323 | 0.0 | 1.6 | 0.00 | 0.00 | 0.00 | 10 | 1007.7 |
| 20260506164141 | 12 | 323 | 0.0 | 1.6 | 0.00 | 0.00 | 0.00 | 10 | 1007.7 |
| 20260506163641 | 12 | 323 | 0.0 | 1.6 | 0.00 | 0.00 | 0.00 | 10 | 1007.6 |
| 20260506163140 | 12 | 323 | 1.6 | 3.2 | 0.00 | 0.00 | 0.00 | 10 | 1007.6 |
| 20260506162640 | 12 | 323 | 3.2 | 4.8 | 0.00 | 0.00 | 0.00 | 10 | 1007.5 |
| 20260506162140 | 12 | 323 | 3.2 | 4.8 | 0.00 | 0.00 | 0.00 | 10 | 1007.5 |
| 20260506161640 | 12 | 323 | 4.8 | 8.0 | 0.00 | 0.00 | 0.00 | 10 | 1007.6 |
| 20260506161140 | 12 | 323 | 4.8 | 8.0 | 0.00 | 0.00 | 0.00 | 10 | 1007.5 |
| 20260506160640 | 12 | 323 | 4.8 | 8.0 | 0.00 | 0.00 | 0.00 | 10 | 1007.6 |
| 20260506160140 | 12 | 323 | 8.0 | 11.3 | 0.00 | 0.00 | 0.00 | 10 | 1007.6 |
| 20260506155640 | 12 | 323 | 8.0 | 11.3 | 0.00 | 0.00 | 0.00 | 10 | 1007.5 |
| 20260506155140 | 12 | 323 | 8.0 | 11.3 | 0.00 | 0.00 | 0.00 | 10 | 1007.4 |
| 20260506154640 | 12 | 316 | 0.0 | 1.6 | 0.00 | 0.00 | 0.00 | 10 | 1007.4 |
| 20260506154140 | 12 | 316 | 0.0 | 1.6 | 0.00 | 0.00 | 0.00 | 10 | 1007.3 |
| 20260506153640 | 12 | 316 | 1.6 | 3.2 | 0.00 | 0.00 | 0.00 | 10 | 1007.3 |
| 20260506153140 | 12 | 316 | 1.6 | 3.2 | 0.00 | 0.00 | 0.00 | 10 | 1007.3 |
| 20260506152640 | 13 | 316 | 3.2 | 4.8 | 0.00 | 0.00 | 0.00 | 10 | 1007.2 |
| 20260506152140 | 13 | 316 | 3.2 | 4.8 | 0.00 | 0.00 | 0.00 | 10 | 1007.2 |
| 20260506151639 | 14 | 316 | 6.4 | 8.0 | 0.00 | 0.00 | 0.00 | 10 | 1007.1 |
| 20260506151139 | 14 | 316 | 9.7 | 11.3 | 0.00 | 0.00 | 0.00 | 10 | 1007.0 |
| 20260506150639 | 15 | 316 | 9.7 | 11.3 | 0.00 | 0.00 | 0.00 | 10 | 1006.9 |
| 20260506150139 | 15 | 309 | 0.0 | 1.6 | 0.00 | 0.00 | 0.00 | 97 | 1006.8 |
| 20260506145639 | 15 | 309 | 0.0 | 1.6 | 0.00 | 0.00 | 0.00 | 97 | 1006.8 |
| 20260506145139 | 15 | 309 | 0.0 | 1.6 | 0.00 | 0.00 | 0.00 | 99 | 1006.8 |
| 20260506144639 | 15 | 309 | 1.6 | 3.2 | 0.00 | 0.00 | 0.00 | 10 | 1006.9 |
| 20260506144139 | 15 | 309 | 3.2 | 4.8 | 0.00 | 0.00 | 0.00 | 10 | 1006.8 |
| 20260506143639 | 15 | 309 | 3.2 | 4.8 | 0.00 | 0.00 | 0.00 | 99 | 1006.8 |
| 20260506143139 | 15 | 309 | 3.2 | 4.8 | 0.00 | 0.00 | 0.00 | 96 | 1006.8 |
| 20260506142639 | 15 | 309 | 6.4 | 8.0 | 0.00 | 0.00 | 0.00 | 93 | 1006.9 |
| 20260506142138 | 15 | 309 | 6.4 | 8.0 | 0.00 | 0.00 | 0.00 | 88 | 1006.8 |
| 20260506141638 | 16 | 309 | 9.7 | 12.9 | 0.00 | 0.00 | 0.00 | 87 | 1006.9 |
| 20260506141138 | 16 | 309 | 9.7 | 12.9 | 0.00 | 0.00 | 0.00 | 85 | 1006.8 |
| 20260506140638 | 16 | 309 | 9.7 | 12.9 | 0.00 | 0.00 | 0.00 | 80 | 1006.7 |
| 20260506140138 | 16 | 309 | 9.7 | 12.9 | 0.00 | 0.00 | 0.00 | 77 | 1006.7 |
| 20260506135638 | 17 | 309 | 9.7 | 12.9 | 0.00 | 0.00 | 0.00 | 70 | 1006.7 |
| 20260506135138 | 17 | 309 | 9.7 | 12.9 | 0.00 | 0.00 | 0.00 | 70 | 1006.6 |
| 20260506134638 | 17 | 309 | 9.7 | 12.9 | 0.00 | 0.00 | 0.00 | 69 | 1006.6 |
| 20260506134138 | 17 | 309 | 9.7 | 12.9 | 0.00 | 0.00 | 0.00 | 74 | 1006.5 |
| 20260506133638 | 18 | 309 | 9.7 | 12.9 | 0.00 | 0.00 | 0.00 | 68 | 1006.5 |
| 20260506133138 | 19 | 303 | 9.7 | 12.9 | 0.00 | 0.00 | 0.00 | 64 | 1006.5 |
| 20260506132638 | 19 | 303 | 9.7 | 12.9 | 0.00 | 0.00 | 0.00 | 62 | 1006.4 |
| 20260506132138 | 20 | 303 | 9.7 | 12.9 | 0.00 | 0.00 | 0.00 | 58 | 1006.4 |
| 20260506131638 | 20 | 303 | 9.7 | 12.9 | 0.00 | 0.00 | 0.00 | 59 | 1006.4 |
| 20260506131137 | 19 | 303 | 9.7 | 12.9 | 0.00 | 0.00 | 0.00 | 59 | 1006.4 |
| 20260506130637 | 19 | 303 | 9.7 | 12.9 | 0.00 | 0.00 | 0.00 | 59 | 1006.3 |
| 20260506130137 | 19 | 303 | 9.7 | 12.9 | 0.00 | 0.00 | 0.00 | 63 | 1006.3 |
| 20260506125637 | 18 | 255 | 12.9 | 16.1 | 0.00 | 0.00 | 0.00 | 64 | 1006.3 |
| 20260506125137 | 18 | 255 | 12.9 | 16.1 | 0.00 | 0.00 | 0.00 | 64 | 1006.4 |
| 20260506124637 | 17 | 255 | 12.9 | 16.1 | 0.00 | 0.00 | 0.00 | 66 | 1006.4 |
| 20260506124137 | 17 | 255 | 12.9 | 16.1 | 0.00 | 0.00 | 0.00 | 66 | 1006.4 |
| 20260506123637 | 17 | 255 | 12.9 | 16.1 | 0.00 | 0.00 | 0.00 | 69 | 1006.4 |
| 20260506123137 | 17 | 245 | 12.9 | 14.5 | 0.00 | 0.00 | 0.00 | 68 | 1006.5 |
| 20260506122637 | 18 | 245 | 12.9 | 14.5 | 0.00 | 0.00 | 0.00 | 63 | 1006.4 |
| 20260506122137 | 19 | 245 | 12.9 | 14.5 | 0.00 | 0.00 | 0.00 | 61 | 1006.5 |
| 20260506121637 | 19 | 245 | 12.9 | 14.5 | 0.00 | 0.00 | 0.00 | 62 | 1006.5 |
| 20260506121137 | 19 | 245 | 12.9 | 14.5 | 0.00 | 0.00 | 0.00 | 62 | 1006.5 |
| 20260506120637 | 18 | 245 | 12.9 | 14.5 | 0.00 | 0.00 | 0.00 | 63 | 1006.5 |
| 20260506120137 | 18 | 245 | 8.0 | 9.7 | 0.00 | 0.00 | 0.00 | 64 | 1006.5 |
| 20260506115637 | 18 | 245 | 8.0 | 9.7 | 0.00 | 0.00 | 0.00 | 65 | 1006.5 |
| 20260506115137 | 18 | 245 | 8.0 | 9.7 | 0.00 | 0.00 | 0.00 | 66 | 1006.5 |
| 20260506114636 | 17 | 245 | 12.9 | 14.5 | 0.00 | 0.00 | 0.00 | 67 | 1006.4 |
| 20260506114142 | 18 | 245 | 12.9 | 14.5 | 0.00 | 0.00 | 0.00 | 66 | 1006.5 |
| 20260506113636 | 18 | 236 | 1.6 | 1.6 | 0.00 | 0.00 | 0.00 | 67 | 1006.5 |